Norwegian Crown — C6II4 — position and weather

sailwx.info

Track history (hours):
 
Tides and Currents Weather Stations Pressure Air Temp Water Temp Dewpoint Dewpoint Depression Visibility Wind Speed Wind Dir Waves Ship Positions

Norwegian Crown

Operator: Norwegian Cruise Line

Last reported at 2017-Jun-22 16:30 UTC. Time now 2017-Jun-22 16:38 UTC.
Position N 62°11' E 007°02'.

Type: Ship. MMSI: 308785000.

Date/timePositionNaut miles runAvg speedWind from/ knotsBaromVisibWave heightAir tempDewpointWater temp
2017-Jun-22 16:30N 62°11' E 007°02'713.2
2017-Jun-22 15:59N 62°05' E 006°53'1 0.1
2017-Jun-22 08:27N 62°06' E 006°53'3 5.4
2017-Jun-22 07:59N 62°06' E 006°59'4 8.5
2017-Jun-22 07:29N 62°07' E 007°08'2 3.9
2017-Jun-22 07:00N 62°06' E 007°11'2 4.9
2017-Jun-22 06:30N 62°06' E 007°06'2 3.7
2017-Jun-22 06:00N 62°05' E 007°03'4 7.0
2017-Jun-22 05:29N 62°08' E 006°58'612.8
2017-Jun-22 05:00N 62°14' E 007°02'612.9
2017-Jun-22 04:30N 62°20' E 006°56'612.2
2017-Jun-22 04:00N 62°26' E 006°52'612.3
2017-Jun-22 03:30N 62°27' E 006°39'713.2
2017-Jun-22 03:00N 62°25' E 006°26'713.5
2017-Jun-22 02:30N 62°23' E 006°12'611.8
2017-Jun-22 02:00N 62°26' E 006°01'713.0
2017-Jun-22 01:30N 62°29' E 005°49'510.7
2017-Jun-22 01:00N 62°32' E 005°40'510.7
2017-Jun-22 00:30N 62°38' E 005°37'510.9
2017-Jun-22 00:00N 62°43' E 005°37'510.8
2017-Jun-21 23:30N 62°48' E 005°38'20 9.7
2017-Jun-21 21:25N 63°02' E 006°11'410.5
2017-Jun-21 21:00N 63°03' E 006°20'510.3
2017-Jun-21 20:30N 63°03' E 006°32'510.5
2017-Jun-21 20:01N 63°04' E 006°43'510.2
2017-Jun-21 19:30N 63°05' E 006°54'510.0
2017-Jun-21 19:01N 63°04' E 007°05'510.1
2017-Jun-21 18:31N 63°03' E 007°16'5 9.7
2017-Jun-21 18:00N 63°05' E 007°26'5 9.5
2017-Jun-21 17:30N 63°07' E 007°35'4 7.9
2017-Jun-21 17:00N 63°06' E 007°43'1 1.8
2017-Jun-21 16:28N 63°07' E 007°44'0 0.0
2017-Jun-21 15:58N 63°07' E 007°44'0 0.0
2017-Jun-21 15:28N 63°07' E 007°44'0 0.0
2017-Jun-21 14:58N 63°07' E 007°44'0 0.0
2017-Jun-21 13:58N 63°07' E 007°44'0 0.0
2017-Jun-21 13:28N 63°07' E 007°44'0 0.0
2017-Jun-21 12:58N 63°07' E 007°44'0 0.0
2017-Jun-21 12:28N 63°07' E 007°44'0 0.0
2017-Jun-21 11:58N 63°07' E 007°44'0 0.0
2017-Jun-21 11:28N 63°07' E 007°44'0 0.0
2017-Jun-21 10:58N 63°07' E 007°44'0 0.0
2017-Jun-21 10:28N 63°07' E 007°44'0 0.0
2017-Jun-21 09:58N 63°07' E 007°44'0 0.0
2017-Jun-21 09:28N 63°07' E 007°44'0 0.0
2017-Jun-21 08:58N 63°07' E 007°44'0 0.0
2017-Jun-21 08:28N 63°07' E 007°44'0 0.0
2017-Jun-21 07:58N 63°07' E 007°44'0 0.0
2017-Jun-21 07:28N 63°07' E 007°44'0 0.0
2017-Jun-21 06:58N 63°07' E 007°44'0 0.9
2017-Jun-21 06:30N 63°06' E 007°45'3 6.4
2017-Jun-21 06:00N 63°09' E 007°42'510.0
2017-Jun-21 05:30N 63°14' E 007°41'815.9
2017-Jun-21 05:01N 63°21' E 007°33'815.6
2017-Jun-21 04:30N 63°29' E 007°30'815.5
2017-Jun-21 04:00N 63°37' E 007°28'  
2017-Jun-15 21:21N 71°31' E 025°12'616.2
2017-Jun-15 21:00N 71°26' E 025°21'816.3
2017-Jun-15 20:30N 71°19' E 025°34'715.4
2017-Jun-15 20:01N 71°13' E 025°46'4 7.5
2017-Jun-15 19:30N 71°10' E 025°54'5 9.9
2017-Jun-15 19:00N 71°08' E 026°08'714.1
2017-Jun-15 18:30N 71°02' E 026°18'714.0
2017-Jun-15 18:00N 70°57' E 026°01'2 3.6
2017-Jun-15 17:30N 70°59' E 025°58'0 0.0
2017-Jun-15 17:00N 70°59' E 025°58'0 0.0
2017-Jun-15 16:30N 70°59' E 025°58'0 0.0
2017-Jun-15 16:00N 70°59' E 025°58'0 0.0
2017-Jun-15 15:30N 70°59' E 025°58'0 0.0
2017-Jun-15 15:00N 70°59' E 025°58'0 0.0
2017-Jun-15 14:00N 70°59' E 025°58'0 0.0
2017-Jun-15 13:30N 70°59' E 025°58'0 0.0
2017-Jun-15 12:57N 70°59' E 025°58'0 0.0
2017-Jun-15 12:30N 70°59' E 025°58'0 0.0
2017-Jun-15 12:00N 70°59' E 025°58'0 0.0
2017-Jun-15 11:30N 70°59' E 025°58'0 0.0
2017-Jun-15 11:00N 70°59' E 025°58'0 0.0
2017-Jun-15 10:30N 70°59' E 025°58'0 0.0
2017-Jun-15 10:00N 70°59' E 025°58'0 0.0
2017-Jun-15 09:30N 70°59' E 025°58'0 0.0
2017-Jun-15 09:00N 70°59' E 025°58'0 0.0
2017-Jun-15 08:30N 70°59' E 025°58'0 0.0
2017-Jun-15 08:00N 70°59' E 025°58'0 0.0
2017-Jun-15 07:30N 70°59' E 025°58'0 0.2
2017-Jun-15 07:00N 70°59' E 025°58'4 7.5
2017-Jun-15 06:30N 70°56' E 025°50'611.9
2017-Jun-15 06:00N 70°56' E 025°32'713.1
2017-Jun-15 05:29N 70°59' E 025°15'613.0
2017-Jun-15 05:00N 70°60' E 024°55'713.3
2017-Jun-15 04:30N 71°02' E 024°36'612.3
2017-Jun-15 04:00N 70°58' E 024°21'713.6
2017-Jun-15 03:31N 70°53' E 024°06'713.4
2017-Jun-15 03:00N 70°49' E 023°51'713.6
2017-Jun-15 02:29N 70°44' E 023°35'815.2
2017-Jun-15 02:00N 70°39' E 023°20'815.5
2017-Jun-15 01:30N 70°33' E 023°04'715.0
2017-Jun-15 01:00N 70°29' E 022°45'815.0
2017-Jun-15 00:30N 70°27' E 022°23'715.2
2017-Jun-15 00:00N 70°26' E 022°01'815.4
2017-Jun-14 23:30N 70°23' E 021°39'815.6
2017-Jun-14 23:00N 70°18' E 021°23'814.9
2017-Jun-14 22:30N 70°12' E 021°07'715.3
2017-Jun-14 22:00N 70°06' E 020°58'815.0
2017-Jun-14 21:30N 70°02' E 020°39'815.6
2017-Jun-14 21:00N 69°59' E 020°17'815.5
2017-Jun-14 20:30N 69°55' E 019°59'815.7
2017-Jun-14 20:00N 69°50' E 019°40'815.9
2017-Jun-14 19:30N 69°47' E 019°19'815.3
2017-Jun-14 19:00N 69°43' E 018°60'611.1
2017-Jun-14 18:30N 69°38' E 018°53'2 3.4
2017-Jun-14 18:00N 69°39' E 018°58'0 0.0
2017-Jun-14 17:29N 69°39' E 018°58'0 0.0
2017-Jun-14 16:59N 69°39' E 018°58'0 0.0
2017-Jun-14 16:29N 69°39' E 018°58'0 0.0
2017-Jun-14 16:00N 69°39' E 018°58'0 0.0
2017-Jun-14 15:30N 69°39' E 018°58'0 0.0
2017-Jun-14 15:00N 69°39' E 018°58'0 0.0
2017-Jun-14 14:00N 69°39' E 018°58'0 0.0
2017-Jun-14 13:30N 69°39' E 018°58'0 0.0
2017-Jun-14 13:00N 69°39' E 018°58'0 0.0
2017-Jun-14 12:30N 69°39' E 018°58'0 0.0
2017-Jun-14 12:00N 69°39' E 018°58'0 0.0
2017-Jun-14 11:30N 69°39' E 018°58'0 0.2
2017-Jun-14 10:59N 69°39' E 018°58'4 7.9
2017-Jun-14 10:30N 69°36' E 018°52'815.1
2017-Jun-14 10:00N 69°32' E 018°33'815.1
2017-Jun-14 09:30N 69°29' E 018°13'713.5
2017-Jun-14 09:00N 69°23' E 018°05'610.9
2017-Jun-14 08:30N 69°18' E 017°58'611.6
2017-Jun-14 08:00N 69°13' E 018°00'612.5
2017-Jun-14 07:30N 69°08' E 017°46'815.4
2017-Jun-14 07:00N 69°06' E 017°26'815.2
2017-Jun-14 06:30N 68°60' E 017°14'815.6
2017-Jun-14 06:00N 68°54' E 016°59'815.6
2017-Jun-14 05:30N 68°47' E 016°48'815.4
2017-Jun-14 05:00N 68°40' E 016°39'815.7
2017-Jun-14 04:30N 68°33' E 016°30'713.2
2017-Jun-14 04:00N 68°32' E 016°12'815.7
2017-Jun-14 03:30N 68°25' E 016°03'713.5
2017-Jun-14 02:59N 68°19' E 015°53'715.4
2017-Jun-14 02:30N 68°14' E 015°40'815.3
2017-Jun-14 02:00N 68°11' E 015°20'815.5
2017-Jun-14 01:29N 68°07' E 015°02'815.6
2017-Jun-14 01:00N 68°03' E 014°44'815.5
2017-Jun-14 00:30N 67°59' E 014°26'815.6
2017-Jun-14 00:00N 67°55' E 014°09'815.4
2017-Jun-13 23:30N 67°51' E 013°52'815.2
2017-Jun-13 23:00N 67°45' E 013°38'815.2
2017-Jun-13 22:30N 67°40' E 013°25'815.3
2017-Jun-13 22:00N 67°33' E 013°12'815.6
2017-Jun-13 21:30N 67°27' E 012°60'1615.1
2017-Jun-13 20:28N 67°12' E 012°55'715.3
2017-Jun-13 20:00N 67°07' E 013°09'715.1
2017-Jun-13 19:30N 67°03' E 013°24'714.4
2017-Jun-13 19:00N 66°56' E 013°29'713.9
2017-Jun-13 18:31N 66°51' E 013°18'612.6
2017-Jun-13 18:00N 66°44' E 013°16'713.0
2017-Jun-13 17:30N 66°43' E 013°33'4 7.9
2017-Jun-13 17:00N 66°42' E 013°42'2 4.4
2017-Jun-13 16:30N 66°42' E 013°37'510.9
2017-Jun-13 16:00N 66°44' E 013°24'713.8
2017-Jun-13 15:30N 66°41' E 013°09'815.2
2017-Jun-13 15:00N 66°34' E 013°04'3 5.7
2017-Jun-13 14:30N 66°32' E 012°59'7 7.3
2017-Jun-13 13:30N 66°25' E 012°59'612.4
2017-Jun-13 13:01N 66°20' E 012°50'814.8
2017-Jun-13 12:30N 66°13' E 012°39'715.4
2017-Jun-13 12:01N 66°06' E 012°41'814.8
2017-Jun-13 11:30N 65°60' E 012°30'612.2
2017-Jun-13 11:00N 65°55' E 012°22'714.8
2017-Jun-13 10:30N 65°47' E 012°20'815.3
2017-Jun-13 10:00N 65°40' E 012°14'815.2
2017-Jun-13 09:30N 65°33' E 012°05'815.4
2017-Jun-13 09:00N 65°27' E 011°56'510.2
2017-Jun-13 08:29N 65°22' E 012°01'3 6.4
2017-Jun-13 08:00N 65°24' E 012°07'1 2.0
2017-Jun-13 07:30N 65°24' E 012°09'612.1
2017-Jun-13 07:01N 65°20' E 012°01'815.2
2017-Jun-13 06:31N 65°13' E 011°53'815.2
2017-Jun-13 06:01N 65°05' E 011°47'713.7
2017-Jun-13 05:30N 65°00' E 011°37'714.0
2017-Jun-13 05:00N 64°55' E 011°25'5 9.4
2017-Jun-13 04:30N 64°52' E 011°17'510.3
2017-Jun-13 04:00N 64°49' E 011°08'713.4
2017-Jun-13 03:30N 64°44' E 010°57'713.2
2017-Jun-13 03:00N 64°40' E 010°45'713.3
2017-Jun-13 02:31N 64°35' E 010°34'612.6
2017-Jun-13 02:00N 64°31' E 010°23'714.3
2017-Jun-13 01:30N 64°26' E 010°11'714.3
2017-Jun-13 01:00N 64°21' E 009°58'714.2
2017-Jun-13 00:30N 64°17' E 009°46'714.0
2017-Jun-13 00:00N 64°10' E 009°39'714.2
2017-Jun-12 23:29N 64°04' E 009°31'714.7
2017-Jun-12 23:00N 63°57' E 009°24'715.0
2017-Jun-12 22:30N 63°50' E 009°18'815.4
2017-Jun-12 22:00N 63°43' E 009°15'814.9
2017-Jun-12 21:30N 63°35' E 009°16'713.4
2017-Jun-12 21:00N 63°30' E 009°06'816.1
2017-Jun-12 20:30N 63°27' E 008°49'816.1
2017-Jun-12 20:00N 63°24' E 008°33'815.7
2017-Jun-12 19:31N 63°20' E 008°18'816.1
2017-Jun-12 19:00N 63°15' E 008°04'815.8
2017-Jun-12 18:31N 63°11' E 007°49'611.8
2017-Jun-12 18:00N 63°08' E 007°38'815.1
2017-Jun-12 17:30N 63°04' E 007°24'815.1
2017-Jun-12 17:00N 63°01' E 007°08'815.4
2017-Jun-12 16:30N 62°59' E 006°53'  
Track history (hours):
 
Tides and Currents Weather Stations Pressure Air Temp Water Temp Dewpoint Dewpoint Depression Visibility Wind Speed Wind Dir Waves Ship Positions

Norwegian Crown

Operator: Norwegian Cruise Line

Last reported at 2017-Jun-22 16:30 UTC. Time now 2017-Jun-22 16:38 UTC.
Position N 62°11' E 007°02'.

Type: Ship. MMSI: 308785000.

Date/timePositionNaut miles runAvg speedWind from/ knotsBaromVisibWave heightAir tempDewpointWater temp
2017-Jun-22 16:30N 62°11' E 007°02'713.2
2017-Jun-22 15:59N 62°05' E 006°53'1 0.1
2017-Jun-22 08:27N 62°06' E 006°53'3 5.4
2017-Jun-22 07:59N 62°06' E 006°59'4 8.5
2017-Jun-22 07:29N 62°07' E 007°08'2 3.9
2017-Jun-22 07:00N 62°06' E 007°11'2 4.9
2017-Jun-22 06:30N 62°06' E 007°06'2 3.7
2017-Jun-22 06:00N 62°05' E 007°03'4 7.0
2017-Jun-22 05:29N 62°08' E 006°58'612.8
2017-Jun-22 05:00N 62°14' E 007°02'612.9
2017-Jun-22 04:30N 62°20' E 006°56'612.2
2017-Jun-22 04:00N 62°26' E 006°52'612.3
2017-Jun-22 03:30N 62°27' E 006°39'713.2
2017-Jun-22 03:00N 62°25' E 006°26'713.5
2017-Jun-22 02:30N 62°23' E 006°12'611.8
2017-Jun-22 02:00N 62°26' E 006°01'713.0
2017-Jun-22 01:30N 62°29' E 005°49'510.7
2017-Jun-22 01:00N 62°32' E 005°40'510.7
2017-Jun-22 00:30N 62°38' E 005°37'510.9
2017-Jun-22 00:00N 62°43' E 005°37'510.8
2017-Jun-21 23:30N 62°48' E 005°38'20 9.7
2017-Jun-21 21:25N 63°02' E 006°11'410.5
2017-Jun-21 21:00N 63°03' E 006°20'510.3
2017-Jun-21 20:30N 63°03' E 006°32'510.5
2017-Jun-21 20:01N 63°04' E 006°43'510.2
2017-Jun-21 19:30N 63°05' E 006°54'510.0
2017-Jun-21 19:01N 63°04' E 007°05'510.1
2017-Jun-21 18:31N 63°03' E 007°16'5 9.7
2017-Jun-21 18:00N 63°05' E 007°26'5 9.5
2017-Jun-21 17:30N 63°07' E 007°35'4 7.9
2017-Jun-21 17:00N 63°06' E 007°43'1 1.8
2017-Jun-21 16:28N 63°07' E 007°44'0 0.0
2017-Jun-21 15:58N 63°07' E 007°44'0 0.0
2017-Jun-21 15:28N 63°07' E 007°44'0 0.0
2017-Jun-21 14:58N 63°07' E 007°44'0 0.0
2017-Jun-21 13:58N 63°07' E 007°44'0 0.0
2017-Jun-21 13:28N 63°07' E 007°44'0 0.0
2017-Jun-21 12:58N 63°07' E 007°44'0 0.0
2017-Jun-21 12:28N 63°07' E 007°44'0 0.0
2017-Jun-21 11:58N 63°07' E 007°44'0 0.0
2017-Jun-21 11:28N 63°07' E 007°44'0 0.0
2017-Jun-21 10:58N 63°07' E 007°44'0 0.0
2017-Jun-21 10:28N 63°07' E 007°44'0 0.0
2017-Jun-21 09:58N 63°07' E 007°44'0 0.0
2017-Jun-21 09:28N 63°07' E 007°44'0 0.0
2017-Jun-21 08:58N 63°07' E 007°44'0 0.0
2017-Jun-21 08:28N 63°07' E 007°44'0 0.0
2017-Jun-21 07:58N 63°07' E 007°44'0 0.0
2017-Jun-21 07:28N 63°07' E 007°44'0 0.0
2017-Jun-21 06:58N 63°07' E 007°44'0 0.9
2017-Jun-21 06:30N 63°06' E 007°45'3 6.4
2017-Jun-21 06:00N 63°09' E 007°42'510.0
2017-Jun-21 05:30N 63°14' E 007°41'815.9
2017-Jun-21 05:01N 63°21' E 007°33'815.6
2017-Jun-21 04:30N 63°29' E 007°30'815.5
2017-Jun-21 04:00N 63°37' E 007°28'  
2017-Jun-15 21:21N 71°31' E 025°12'616.2
2017-Jun-15 21:00N 71°26' E 025°21'816.3
2017-Jun-15 20:30N 71°19' E 025°34'715.4
2017-Jun-15 20:01N 71°13' E 025°46'4 7.5
2017-Jun-15 19:30N 71°10' E 025°54'5 9.9
2017-Jun-15 19:00N 71°08' E 026°08'714.1
2017-Jun-15 18:30N 71°02' E 026°18'714.0
2017-Jun-15 18:00N 70°57' E 026°01'2 3.6
2017-Jun-15 17:30N 70°59' E 025°58'0 0.0
2017-Jun-15 17:00N 70°59' E 025°58'0 0.0
2017-Jun-15 16:30N 70°59' E 025°58'0 0.0
2017-Jun-15 16:00N 70°59' E 025°58'0 0.0
2017-Jun-15 15:30N 70°59' E 025°58'0 0.0
2017-Jun-15 15:00N 70°59' E 025°58'0 0.0
2017-Jun-15 14:00N 70°59' E 025°58'0 0.0
2017-Jun-15 13:30N 70°59' E 025°58'0 0.0
2017-Jun-15 12:57N 70°59' E 025°58'0 0.0
2017-Jun-15 12:30N 70°59' E 025°58'0 0.0
2017-Jun-15 12:00N 70°59' E 025°58'0 0.0
2017-Jun-15 11:30N 70°59' E 025°58'0 0.0
2017-Jun-15 11:00N 70°59' E 025°58'0 0.0
2017-Jun-15 10:30N 70°59' E 025°58'0 0.0
2017-Jun-15 10:00N 70°59' E 025°58'0 0.0
2017-Jun-15 09:30N 70°59' E 025°58'0 0.0
2017-Jun-15 09:00N 70°59' E 025°58'0 0.0
2017-Jun-15 08:30N 70°59' E 025°58'0 0.0
2017-Jun-15 08:00N 70°59' E 025°58'0 0.0
2017-Jun-15 07:30N 70°59' E 025°58'0 0.2
2017-Jun-15 07:00N 70°59' E 025°58'4 7.5
2017-Jun-15 06:30N 70°56' E 025°50'611.9
2017-Jun-15 06:00N 70°56' E 025°32'713.1
2017-Jun-15 05:29N 70°59' E 025°15'613.0
2017-Jun-15 05:00N 70°60' E 024°55'713.3
2017-Jun-15 04:30N 71°02' E 024°36'612.3
2017-Jun-15 04:00N 70°58' E 024°21'713.6
2017-Jun-15 03:31N 70°53' E 024°06'713.4
2017-Jun-15 03:00N 70°49' E 023°51'713.6
2017-Jun-15 02:29N 70°44' E 023°35'815.2
2017-Jun-15 02:00N 70°39' E 023°20'815.5
2017-Jun-15 01:30N 70°33' E 023°04'715.0
2017-Jun-15 01:00N 70°29' E 022°45'815.0
2017-Jun-15 00:30N 70°27' E 022°23'715.2
2017-Jun-15 00:00N 70°26' E 022°01'815.4
2017-Jun-14 23:30N 70°23' E 021°39'815.6
2017-Jun-14 23:00N 70°18' E 021°23'814.9
2017-Jun-14 22:30N 70°12' E 021°07'715.3
2017-Jun-14 22:00N 70°06' E 020°58'815.0
2017-Jun-14 21:30N 70°02' E 020°39'815.6
2017-Jun-14 21:00N 69°59' E 020°17'815.5
2017-Jun-14 20:30N 69°55' E 019°59'815.7
2017-Jun-14 20:00N 69°50' E 019°40'815.9
2017-Jun-14 19:30N 69°47' E 019°19'815.3
2017-Jun-14 19:00N 69°43' E 018°60'611.1
2017-Jun-14 18:30N 69°38' E 018°53'2 3.4
2017-Jun-14 18:00N 69°39' E 018°58'0 0.0
2017-Jun-14 17:29N 69°39' E 018°58'0 0.0
2017-Jun-14 16:59N 69°39' E 018°58'0 0.0
2017-Jun-14 16:29N 69°39' E 018°58'0 0.0
2017-Jun-14 16:00N 69°39' E 018°58'0 0.0
2017-Jun-14 15:30N 69°39' E 018°58'0 0.0
2017-Jun-14 15:00N 69°39' E 018°58'0 0.0
2017-Jun-14 14:00N 69°39' E 018°58'0 0.0
2017-Jun-14 13:30N 69°39' E 018°58'0 0.0
2017-Jun-14 13:00N 69°39' E 018°58'0 0.0
2017-Jun-14 12:30N 69°39' E 018°58'0 0.0
2017-Jun-14 12:00N 69°39' E 018°58'0 0.0
2017-Jun-14 11:30N 69°39' E 018°58'0 0.2
2017-Jun-14 10:59N 69°39' E 018°58'4 7.9
2017-Jun-14 10:30N 69°36' E 018°52'815.1
2017-Jun-14 10:00N 69°32' E 018°33'815.1
2017-Jun-14 09:30N 69°29' E 018°13'713.5
2017-Jun-14 09:00N 69°23' E 018°05'610.9
2017-Jun-14 08:30N 69°18' E 017°58'611.6
2017-Jun-14 08:00N 69°13' E 018°00'612.5
2017-Jun-14 07:30N 69°08' E 017°46'815.4
2017-Jun-14 07:00N 69°06' E 017°26'815.2
2017-Jun-14 06:30N 68°60' E 017°14'815.6
2017-Jun-14 06:00N 68°54' E 016°59'815.6
2017-Jun-14 05:30N 68°47' E 016°48'815.4
2017-Jun-14 05:00N 68°40' E 016°39'815.7
2017-Jun-14 04:30N 68°33' E 016°30'713.2
2017-Jun-14 04:00N 68°32' E 016°12'815.7
2017-Jun-14 03:30N 68°25' E 016°03'713.5
2017-Jun-14 02:59N 68°19' E 015°53'715.4
2017-Jun-14 02:30N 68°14' E 015°40'815.3
2017-Jun-14 02:00N 68°11' E 015°20'815.5
2017-Jun-14 01:29N 68°07' E 015°02'815.6
2017-Jun-14 01:00N 68°03' E 014°44'815.5
2017-Jun-14 00:30N 67°59' E 014°26'815.6
2017-Jun-14 00:00N 67°55' E 014°09'815.4
2017-Jun-13 23:30N 67°51' E 013°52'815.2
2017-Jun-13 23:00N 67°45' E 013°38'815.2
2017-Jun-13 22:30N 67°40' E 013°25'815.3
2017-Jun-13 22:00N 67°33' E 013°12'815.6
2017-Jun-13 21:30N 67°27' E 012°60'1615.1
2017-Jun-13 20:28N 67°12' E 012°55'715.3
2017-Jun-13 20:00N 67°07' E 013°09'715.1
2017-Jun-13 19:30N 67°03' E 013°24'714.4
2017-Jun-13 19:00N 66°56' E 013°29'713.9
2017-Jun-13 18:31N 66°51' E 013°18'612.6
2017-Jun-13 18:00N 66°44' E 013°16'713.0
2017-Jun-13 17:30N 66°43' E 013°33'4 7.9
2017-Jun-13 17:00N 66°42' E 013°42'2 4.4
2017-Jun-13 16:30N 66°42' E 013°37'510.9
2017-Jun-13 16:00N 66°44' E 013°24'713.8
2017-Jun-13 15:30N 66°41' E 013°09'815.2
2017-Jun-13 15:00N 66°34' E 013°04'3 5.7
2017-Jun-13 14:30N 66°32' E 012°59'7 7.3
2017-Jun-13 13:30N 66°25' E 012°59'612.4
2017-Jun-13 13:01N 66°20' E 012°50'814.8
2017-Jun-13 12:30N 66°13' E 012°39'715.4
2017-Jun-13 12:01N 66°06' E 012°41'814.8
2017-Jun-13 11:30N 65°60' E 012°30'612.2
2017-Jun-13 11:00N 65°55' E 012°22'714.8
2017-Jun-13 10:30N 65°47' E 012°20'815.3
2017-Jun-13 10:00N 65°40' E 012°14'815.2
2017-Jun-13 09:30N 65°33' E 012°05'815.4
2017-Jun-13 09:00N 65°27' E 011°56'510.2
2017-Jun-13 08:29N 65°22' E 012°01'3 6.4
2017-Jun-13 08:00N 65°24' E 012°07'1 2.0
2017-Jun-13 07:30N 65°24' E 012°09'612.1
2017-Jun-13 07:01N 65°20' E 012°01'815.2
2017-Jun-13 06:31N 65°13' E 011°53'815.2
2017-Jun-13 06:01N 65°05' E 011°47'713.7
2017-Jun-13 05:30N 65°00' E 011°37'714.0
2017-Jun-13 05:00N 64°55' E 011°25'5 9.4
2017-Jun-13 04:30N 64°52' E 011°17'510.3
2017-Jun-13 04:00N 64°49' E 011°08'713.4
2017-Jun-13 03:30N 64°44' E 010°57'713.2
2017-Jun-13 03:00N 64°40' E 010°45'713.3
2017-Jun-13 02:31N 64°35' E 010°34'612.6
2017-Jun-13 02:00N 64°31' E 010°23'714.3
2017-Jun-13 01:30N 64°26' E 010°11'714.3
2017-Jun-13 01:00N 64°21' E 009°58'714.2
2017-Jun-13 00:30N 64°17' E 009°46'714.0
2017-Jun-13 00:00N 64°10' E 009°39'714.2
2017-Jun-12 23:29N 64°04' E 009°31'714.7
2017-Jun-12 23:00N 63°57' E 009°24'715.0
2017-Jun-12 22:30N 63°50' E 009°18'815.4
2017-Jun-12 22:00N 63°43' E 009°15'814.9
2017-Jun-12 21:30N 63°35' E 009°16'713.4
2017-Jun-12 21:00N 63°30' E 009°06'816.1
2017-Jun-12 20:30N 63°27' E 008°49'816.1
2017-Jun-12 20:00N 63°24' E 008°33'815.7
2017-Jun-12 19:31N 63°20' E 008°18'816.1
2017-Jun-12 19:00N 63°15' E 008°04'815.8
2017-Jun-12 18:31N 63°11' E 007°49'611.8
2017-Jun-12 18:00N 63°08' E 007°38'815.1
2017-Jun-12 17:30N 63°04' E 007°24'815.1
2017-Jun-12 17:00N 63°01' E 007°08'815.4
2017-Jun-12 16:30N 62°59' E 006°53'  

Dump ship's entire track history